Aviation Digital Data Service (ADDS)

Output produced by METARs form (1853 UTC 02 September 2014)
found at http://aviationweather.gov/adds/metars/
 
KRDU 021736Z 0218/0318 22009KT P6SM FEW060 
     FM030600 22005KT P6SM SCT120 
     FM031000 VRB02KT P6SM SCT006